createdAt,value
2018-05-06T00:02:10.955Z,3.30
2018-05-06T00:04:39.997Z,2.97
2018-05-06T00:07:08.387Z,3.40
2018-05-06T00:09:36.649Z,3.40
2018-05-06T00:12:04.922Z,3.50
2018-05-06T00:14:33.235Z,3.17
2018-05-06T00:17:01.581Z,3.10
2018-05-06T00:19:29.976Z,2.80
2018-05-06T00:21:58.333Z,3.27
2018-05-06T00:24:26.775Z,3.00
2018-05-06T00:26:55.032Z,3.10
2018-05-06T00:29:23.494Z,2.93
2018-05-06T00:31:51.757Z,3.00
2018-05-06T00:34:20.245Z,2.90
2018-05-06T00:36:48.659Z,3.10
2018-05-06T00:39:17.176Z,2.80
2018-05-06T00:41:45.438Z,3.23
2018-05-06T00:44:14.062Z,3.10
2018-05-06T00:46:42.454Z,3.10
2018-05-06T00:49:10.734Z,2.83
2018-05-06T00:51:39.801Z,2.77
2018-05-06T00:54:19.874Z,2.80
2018-05-06T00:56:48.150Z,2.77
2018-05-06T00:59:16.427Z,3.00
2018-05-06T01:01:45.274Z,2.53
2018-05-06T01:04:14.302Z,2.83
2018-05-06T01:06:42.633Z,2.30
2018-05-06T01:09:11.195Z,2.43
2018-05-06T01:11:39.449Z,2.67
2018-05-06T01:14:08.127Z,2.40
2018-05-06T01:16:36.514Z,2.70
2018-05-06T01:19:04.791Z,2.57
2018-05-06T01:21:33.570Z,2.30
2018-05-06T01:24:01.984Z,2.70
2018-05-06T01:26:30.350Z,2.50
2018-05-06T01:28:58.706Z,2.70
2018-05-06T01:31:27.366Z,2.80
2018-05-06T01:33:55.714Z,2.50
2018-05-06T01:36:24.003Z,2.70
2018-05-06T01:38:52.474Z,2.23
2018-05-06T01:41:20.914Z,2.57
2018-05-06T01:43:49.298Z,2.50
2018-05-06T01:46:17.630Z,2.60
2018-05-06T01:48:46.682Z,2.50
2018-05-06T01:51:15.101Z,2.40
2018-05-06T01:53:43.371Z,2.90
2018-05-06T01:56:11.756Z,2.20
2018-05-06T01:58:40.789Z,2.70
2018-05-06T02:01:09.133Z,2.53
2018-05-06T02:03:37.304Z,2.70
2018-05-06T02:06:05.667Z,2.30
2018-05-06T02:08:33.993Z,2.50
2018-05-06T02:11:02.427Z,2.50
2018-05-06T02:13:30.778Z,2.33
2018-05-06T02:15:59.093Z,2.10
2018-05-06T02:18:27.561Z,2.20
2018-05-06T02:20:55.844Z,2.20
2018-05-06T02:23:24.270Z,2.50
2018-05-06T02:25:52.654Z,2.70
2018-05-06T02:28:21.346Z,2.23
2018-05-06T02:30:49.730Z,2.40
2018-05-06T02:33:18.070Z,2.20
2018-05-06T02:35:46.423Z,2.30
2018-05-06T02:38:15.095Z,2.07
2018-05-06T02:40:43.368Z,2.30
2018-05-06T02:43:11.922Z,2.40
2018-05-06T02:45:40.309Z,2.30
2018-05-06T02:48:08.570Z,2.13
2018-05-06T02:50:36.866Z,2.17
2018-05-06T02:53:05.440Z,2.40
2018-05-06T02:55:34.439Z,2.43
2018-05-06T02:58:02.801Z,2.00
2018-05-06T03:00:31.510Z,1.87
2018-05-06T03:02:59.915Z,2.33
2018-05-06T03:05:28.257Z,2.20
2018-05-06T03:07:56.906Z,2.07
2018-05-06T03:10:25.570Z,2.23
2018-05-06T03:12:54.021Z,2.17
2018-05-06T03:15:22.334Z,2.20
2018-05-06T03:17:51.073Z,2.07
2018-05-06T03:20:19.498Z,1.93
2018-05-06T03:22:47.780Z,2.33
2018-05-06T03:25:16.163Z,2.10
2018-05-06T03:27:44.426Z,2.40
2018-05-06T03:30:12.803Z,2.13
2018-05-06T03:32:41.058Z,2.23
2018-05-06T03:35:09.468Z,2.20
2018-05-06T03:37:37.705Z,2.13
2018-05-06T03:40:06.428Z,2.20
2018-05-06T03:42:34.872Z,2.10
2018-05-06T03:45:03.189Z,2.40
2018-05-06T03:47:31.625Z,2.00
2018-05-06T03:50:00.015Z,2.10
2018-05-06T03:52:28.357Z,2.30
2018-05-06T03:54:57.021Z,2.37
2018-05-06T03:57:38.037Z,2.43
2018-05-06T04:00:18.459Z,2.10
2018-05-06T04:02:46.783Z,2.50
2018-05-06T04:05:15.035Z,2.57
2018-05-06T04:07:43.478Z,2.10
2018-05-06T04:10:11.852Z,2.30
2018-05-06T04:12:40.261Z,2.50
2018-05-06T04:15:08.926Z,2.40
2018-05-06T04:17:37.375Z,2.50
2018-05-06T04:20:05.699Z,2.30
2018-05-06T04:22:34.147Z,2.50
2018-05-06T04:25:02.518Z,2.50
2018-05-06T04:27:30.898Z,2.10
2018-05-06T04:29:59.165Z,2.23
2018-05-06T04:32:28.246Z,2.50
2018-05-06T04:34:56.636Z,2.60
2018-05-06T04:37:25.266Z,2.30
2018-05-06T04:39:53.711Z,2.30
2018-05-06T04:42:22.063Z,2.20
2018-05-06T04:44:50.795Z,2.27
2018-05-06T04:47:19.443Z,2.47
2018-05-06T04:49:47.916Z,2.30
2018-05-06T04:52:16.186Z,2.20
2018-05-06T04:54:44.829Z,2.23
2018-05-06T04:57:13.575Z,2.33
2018-05-06T04:59:42.171Z,2.60
2018-05-06T05:02:10.583Z,2.30
2018-05-06T05:04:39.040Z,2.17
2018-05-06T05:07:07.393Z,2.33
2018-05-06T05:09:36.179Z,2.27
2018-05-06T05:12:04.485Z,2.43
2018-05-06T05:14:32.791Z,2.50
2018-05-06T05:17:01.045Z,3.50
2018-05-06T05:19:29.305Z,2.63
2018-05-06T05:21:57.802Z,3.30
2018-05-06T05:24:26.489Z,2.80
2018-05-06T05:26:54.761Z,2.43
2018-05-06T05:29:23.427Z,2.40
2018-05-06T05:31:52.166Z,2.50
2018-05-06T05:34:22.813Z,2.70
2018-05-06T05:36:51.071Z,2.40
2018-05-06T05:39:19.363Z,2.40
2018-05-06T05:41:50.075Z,2.50
2018-05-06T05:44:18.932Z,2.50
2018-05-06T05:46:47.194Z,2.07
2018-05-06T05:49:16.160Z,2.40
2018-05-06T05:51:44.506Z,2.10
2018-05-06T05:54:12.774Z,2.40
2018-05-06T05:56:42.171Z,2.33
2018-05-06T05:59:24.699Z,2.60
2018-05-06T06:01:56.153Z,2.73
2018-05-06T06:04:24.847Z,8.00
2018-05-06T06:06:57.067Z,9.53
2018-05-06T06:09:27.282Z,18.00
2018-05-06T06:11:56.618Z,22.53
2018-05-06T06:14:25.891Z,26.63
2018-05-06T06:16:54.222Z,31.27
2018-05-06T06:19:23.840Z,34.10
2018-05-06T06:21:52.291Z,35.23
2018-05-06T06:24:20.915Z,35.00
2018-05-06T06:26:49.574Z,34.77
2018-05-06T06:29:18.624Z,34.33
2018-05-06T06:31:47.041Z,32.30
2018-05-06T06:34:16.080Z,33.00
2018-05-06T06:36:44.349Z,31.00
2018-05-06T06:39:12.782Z,30.50
2018-05-06T06:41:41.146Z,32.20
2018-05-06T06:44:09.526Z,36.00
2018-05-06T06:46:37.931Z,35.10
2018-05-06T06:49:06.191Z,31.00
2018-05-06T06:51:34.598Z,27.00
2018-05-06T06:54:03.633Z,26.73
2018-05-06T06:56:31.905Z,29.17
2018-05-06T06:59:00.393Z,32.90
2018-05-06T07:01:28.773Z,29.73
2018-05-06T07:03:57.055Z,33.53
2018-05-06T07:06:25.580Z,38.90
2018-05-06T07:08:53.967Z,39.90
2018-05-06T07:11:22.355Z,42.90
2018-05-06T07:13:50.622Z,43.00
2018-05-06T07:16:19.034Z,35.17
2018-05-06T07:18:47.707Z,30.53
2018-05-06T07:21:17.002Z,26.90
2018-05-06T07:23:45.358Z,27.57
2018-05-06T07:26:13.835Z,27.77
2018-05-06T07:28:42.110Z,26.20
2018-05-06T07:31:10.823Z,26.00
2018-05-06T07:33:39.265Z,27.77
2018-05-06T07:36:07.557Z,30.50
2018-05-06T07:38:39.199Z,26.87
2018-05-06T07:41:07.474Z,26.00
2018-05-06T07:43:35.750Z,27.10
2018-05-06T07:46:04.230Z,25.27
2018-05-06T07:48:32.585Z,27.20
2018-05-06T07:51:00.850Z,27.43
2018-05-06T07:53:29.524Z,25.50
2018-05-06T07:55:57.830Z,26.67
2018-05-06T07:58:26.115Z,25.80
2018-05-06T08:00:54.433Z,24.53
2018-05-06T08:03:23.480Z,24.67
2018-05-06T08:05:51.746Z,26.57
2018-05-06T08:08:20.202Z,27.27
2018-05-06T08:10:48.659Z,26.30
2018-05-06T08:13:16.960Z,26.07
2018-05-06T08:15:45.378Z,25.00
2018-05-06T08:18:13.900Z,24.33
2018-05-06T08:20:42.362Z,24.83
2018-05-06T08:23:10.762Z,24.27
2018-05-06T08:25:39.209Z,24.57
2018-05-06T08:28:07.534Z,25.00
2018-05-06T08:30:36.872Z,24.60
2018-05-06T08:33:05.154Z,25.63
2018-05-06T08:35:33.674Z,24.97
2018-05-06T08:38:01.961Z,24.00
2018-05-06T08:40:30.646Z,22.93
2018-05-06T08:42:59.026Z,22.67
2018-05-06T08:45:27.504Z,23.40
2018-05-06T08:47:55.862Z,23.13
2018-05-06T08:50:24.531Z,25.40
2018-05-06T08:52:53.210Z,28.47
2018-05-06T08:55:21.619Z,29.10
2018-05-06T08:57:49.919Z,28.70
2018-05-06T09:00:18.387Z,28.80
2018-05-06T09:02:46.998Z,25.80
2018-05-06T09:05:16.047Z,25.57
2018-05-06T09:07:44.353Z,24.77
2018-05-06T09:10:12.736Z,24.70
2018-05-06T09:12:41.007Z,23.63
2018-05-06T09:15:09.541Z,22.50
2018-05-06T09:17:37.940Z,22.40
2018-05-06T09:20:06.264Z,20.77
2018-05-06T09:22:34.687Z,20.80
2018-05-06T09:25:02.998Z,19.03
2018-05-06T09:27:31.418Z,19.60
2018-05-06T09:29:59.878Z,18.07
2018-05-06T09:32:28.326Z,18.13
2018-05-06T09:34:56.882Z,17.30
2018-05-06T09:37:25.314Z,14.60
2018-05-06T09:39:54.519Z,15.10
2018-05-06T09:42:23.555Z,17.80
2018-05-06T09:44:51.994Z,17.93
2018-05-06T09:47:20.347Z,15.83
2018-05-06T09:49:48.622Z,15.00
2018-05-06T09:52:17.114Z,15.23
2018-05-06T09:54:45.471Z,14.60
2018-05-06T09:57:13.745Z,69.97
2018-05-06T09:59:42.149Z,46.87
2018-05-06T10:02:10.558Z,40.87
2018-05-06T10:04:38.834Z,33.47
2018-05-06T10:07:07.356Z,20.57
2018-05-06T10:09:35.985Z,13.23
2018-05-06T10:12:05.329Z,11.37
2018-05-06T10:14:33.731Z,8.93
2018-05-06T10:17:02.238Z,7.70
2018-05-06T10:19:30.499Z,5.50
2018-05-06T10:21:58.778Z,4.90
2018-05-06T10:24:27.041Z,5.03
2018-05-06T10:26:55.393Z,5.83
2018-05-06T10:29:23.665Z,5.53
2018-05-06T10:31:51.938Z,6.13
2018-05-06T10:34:20.207Z,6.77
2018-05-06T10:36:48.514Z,6.23
2018-05-06T10:39:16.893Z,5.87
2018-05-06T10:41:45.257Z,5.97
2018-05-06T10:44:13.590Z,5.67
2018-05-06T10:46:42.054Z,5.97
2018-05-06T10:49:10.483Z,4.67
2018-05-06T10:51:38.709Z,4.70
2018-05-06T10:54:07.171Z,6.00
2018-05-06T10:56:35.568Z,6.20
2018-05-06T10:59:03.834Z,5.30
2018-05-06T11:01:32.345Z,5.37
2018-05-06T11:04:01.626Z,5.90
2018-05-06T11:06:30.019Z,5.20
2018-05-06T11:08:58.273Z,4.83
2018-05-06T11:11:26.862Z,5.00
2018-05-06T11:13:55.134Z,4.60
2018-05-06T11:16:23.808Z,5.27
2018-05-06T11:18:52.220Z,4.17
2018-05-06T11:21:20.571Z,4.53
2018-05-06T11:23:48.949Z,4.07
2018-05-06T11:26:17.323Z,4.83
2018-05-06T11:28:45.497Z,4.20
2018-05-06T11:31:13.763Z,4.03
2018-05-06T11:33:42.104Z,3.97
2018-05-06T11:36:10.488Z,3.67
2018-05-06T11:38:38.934Z,3.87
2018-05-06T11:41:07.253Z,3.80
2018-05-06T11:43:35.984Z,3.63
2018-05-06T11:46:04.367Z,3.97
2018-05-06T11:48:32.700Z,4.00
2018-05-06T11:51:17.752Z,4.03
2018-05-06T11:54:00.272Z,3.73
2018-05-06T11:56:34.219Z,3.70
2018-05-06T11:59:03.879Z,3.50
2018-05-06T12:01:32.567Z,3.20
2018-05-06T12:04:00.829Z,3.90
2018-05-06T12:06:29.145Z,4.30
2018-05-06T12:08:58.306Z,3.63
2018-05-06T12:11:26.558Z,3.40
2018-05-06T12:13:54.923Z,3.73
2018-05-06T12:16:23.620Z,3.43
2018-05-06T12:18:52.008Z,3.40
2018-05-06T12:21:21.172Z,3.10
2018-05-06T12:23:49.437Z,2.80
2018-05-06T12:26:18.051Z,2.57
2018-05-06T12:28:47.342Z,3.07
2018-05-06T12:31:15.726Z,3.43
2018-05-06T12:33:44.019Z,2.87
2018-05-06T12:36:12.506Z,3.20
2018-05-06T12:38:40.810Z,2.70
2018-05-06T12:41:09.245Z,2.60
2018-05-06T12:43:37.520Z,2.60
2018-05-06T12:46:05.787Z,2.93
2018-05-06T12:48:34.088Z,2.90
2018-05-06T12:51:02.459Z,2.70
2018-05-06T12:53:31.447Z,2.40
2018-05-06T12:55:59.718Z,2.67
2018-05-06T12:58:28.235Z,2.97
2018-05-06T13:00:56.626Z,2.60
2018-05-06T13:03:24.986Z,2.30
2018-05-06T13:05:53.362Z,2.33
2018-05-06T13:08:21.623Z,2.37
2018-05-06T13:10:49.942Z,2.33
2018-05-06T13:13:18.478Z,2.07
2018-05-06T13:15:46.870Z,2.40
2018-05-06T13:18:15.290Z,2.40
2018-05-06T13:20:43.882Z,2.33
2018-05-06T13:23:12.610Z,2.33
2018-05-06T13:25:40.970Z,2.67
2018-05-06T13:28:09.271Z,2.47
2018-05-06T13:30:37.515Z,2.50
2018-05-06T13:33:05.835Z,2.30
2018-05-06T13:35:34.153Z,2.07
2018-05-06T13:38:02.820Z,2.47
2018-05-06T13:40:31.096Z,2.20
2018-05-06T13:42:59.646Z,1.77
2018-05-06T13:45:28.064Z,2.03
2018-05-06T13:47:56.350Z,1.90
2018-05-06T13:50:24.804Z,2.20
2018-05-06T13:52:53.237Z,2.07
2018-05-06T13:55:21.818Z,2.03
2018-05-06T13:57:50.086Z,2.17
2018-05-06T14:00:18.556Z,2.00
2018-05-06T14:02:47.015Z,2.43
2018-05-06T14:05:15.266Z,2.30
2018-05-06T14:07:43.746Z,1.97
2018-05-06T14:10:12.135Z,2.30
2018-05-06T14:12:40.497Z,1.87
2018-05-06T14:15:08.775Z,2.13
2018-05-06T14:17:37.262Z,1.97
2018-05-06T14:20:05.630Z,1.80
2018-05-06T14:22:34.025Z,1.90
2018-05-06T14:25:02.354Z,1.50
2018-05-06T14:27:31.398Z,1.60
2018-05-06T14:29:59.793Z,1.83
2018-05-06T14:32:28.119Z,1.70
2018-05-06T14:34:56.519Z,1.87
2018-05-06T14:37:24.909Z,1.50
2018-05-06T14:39:53.165Z,1.70
2018-05-06T14:42:21.673Z,1.47
2018-05-06T14:44:49.989Z,1.70
2018-05-06T14:47:30.253Z,1.70
2018-05-06T14:49:58.777Z,1.40
2018-05-06T14:52:27.181Z,1.67
2018-05-06T14:54:55.542Z,1.47
2018-05-06T14:57:23.914Z,1.50
2018-05-06T14:59:52.271Z,1.60
2018-05-06T15:02:20.683Z,1.37
2018-05-06T15:04:49.100Z,1.40
2018-05-06T15:07:17.458Z,1.60
2018-05-06T15:09:45.766Z,1.33
2018-05-06T15:12:14.212Z,1.60
2018-05-06T15:14:42.620Z,1.30
2018-05-06T15:17:10.959Z,1.60
2018-05-06T15:19:39.629Z,1.37
2018-05-06T15:22:08.015Z,1.30
2018-05-06T15:24:36.389Z,1.40
2018-05-06T15:27:04.663Z,1.40
2018-05-06T15:29:33.110Z,1.40
2018-05-06T15:32:01.542Z,1.73
2018-05-06T15:34:29.865Z,1.33
2018-05-06T15:36:58.594Z,1.30
2018-05-06T15:39:26.870Z,1.50
2018-05-06T15:41:55.967Z,1.57
2018-05-06T15:44:24.293Z,1.47
2018-05-06T15:46:52.737Z,1.50
2018-05-06T15:49:20.996Z,1.73
2018-05-06T15:51:49.461Z,1.87
2018-05-06T15:54:17.890Z,24.07
2018-05-06T15:56:46.275Z,2.30
2018-05-06T15:59:14.835Z,1.90
2018-05-06T16:01:43.606Z,1.53
2018-05-06T16:04:14.996Z,1.40
2018-05-06T16:06:43.255Z,1.50
2018-05-06T16:09:11.535Z,1.53
2018-05-06T16:11:39.789Z,2.17
2018-05-06T16:14:08.601Z,1.90
2018-05-06T16:16:37.278Z,1.90
2018-05-06T16:19:05.538Z,1.50
2018-05-06T16:21:33.991Z,1.90
2018-05-06T16:24:02.418Z,1.77
2018-05-06T16:26:30.777Z,1.67
2018-05-06T16:28:58.993Z,1.80
2018-05-06T16:31:27.255Z,1.60
2018-05-06T16:33:55.540Z,1.60
2018-05-06T16:36:23.802Z,1.50
2018-05-06T16:38:52.069Z,1.80
2018-05-06T16:41:20.452Z,1.50
2018-05-06T16:43:49.009Z,1.70
2018-05-06T16:46:17.502Z,1.37
2018-05-06T16:48:45.891Z,1.80
2018-05-06T16:51:14.267Z,1.60
2018-05-06T16:53:42.535Z,2.00
2018-05-06T16:56:10.823Z,1.60
2018-05-06T16:58:39.241Z,1.70
2018-05-06T17:01:07.477Z,1.60
2018-05-06T17:03:35.870Z,1.70
2018-05-06T17:06:04.249Z,1.63
2018-05-06T17:08:32.531Z,1.60
2018-05-06T17:11:01.279Z,1.80
2018-05-06T17:13:29.707Z,1.70
2018-05-06T17:15:58.122Z,1.70
2018-05-06T17:18:26.406Z,1.80
2018-05-06T17:20:55.429Z,1.90
2018-05-06T17:23:23.851Z,1.53
2018-05-06T17:25:52.190Z,1.50
2018-05-06T17:28:20.586Z,1.80
2018-05-06T17:30:48.873Z,1.60
2018-05-06T17:33:17.630Z,1.63
2018-05-06T17:35:59.111Z,1.70
2018-05-06T17:38:28.029Z,7.67
2018-05-06T17:40:56.564Z,49.53
2018-05-06T17:43:28.437Z,56.17
2018-05-06T17:45:56.731Z,59.30
2018-05-06T17:48:25.104Z,67.50
2018-05-06T17:50:53.639Z,110.53
2018-05-06T17:53:22.203Z,114.60
2018-05-06T17:55:50.508Z,114.87
2018-05-06T17:58:19.862Z,117.57
2018-05-06T18:00:48.177Z,99.77
2018-05-06T18:03:16.447Z,114.47
2018-05-06T18:05:45.024Z,100.40
2018-05-06T18:08:13.422Z,97.23
2018-05-06T18:10:41.697Z,99.93
2018-05-06T18:13:10.444Z,105.00
2018-05-06T18:15:39.126Z,100.60
2018-05-06T18:18:07.422Z,102.07
2018-05-06T18:20:35.716Z,105.43
2018-05-06T18:23:04.210Z,101.00
2018-05-06T18:25:32.706Z,95.30
2018-05-06T18:28:00.999Z,89.67
2018-05-06T18:30:29.398Z,85.23
2018-05-06T18:32:58.482Z,76.40
2018-05-06T18:35:26.764Z,85.03
2018-05-06T18:37:55.153Z,46.50
2018-05-06T18:40:23.465Z,55.30
2018-05-06T18:42:51.831Z,61.70
2018-05-06T18:45:20.130Z,62.90
2018-05-06T18:47:48.396Z,63.43
2018-05-06T18:50:16.759Z,60.03
2018-05-06T18:52:45.122Z,64.30
2018-05-06T18:55:13.570Z,62.07
2018-05-06T18:57:41.866Z,62.47
2018-05-06T19:00:10.310Z,64.50
2018-05-06T19:02:38.588Z,63.73
2018-05-06T19:05:07.626Z,61.87
2018-05-06T19:07:35.962Z,57.00
2018-05-06T19:10:05.001Z,59.07
2018-05-06T19:12:33.728Z,55.70
2018-05-06T19:15:02.212Z,55.67
2018-05-06T19:17:30.509Z,57.50
2018-05-06T19:19:58.834Z,55.50
2018-05-06T19:22:27.159Z,56.00
2018-05-06T19:24:56.206Z,58.40
2018-05-06T19:27:24.525Z,54.87
2018-05-06T19:29:52.988Z,55.37
2018-05-06T19:32:22.034Z,52.03
2018-05-06T19:34:50.643Z,43.30
2018-05-06T19:37:19.274Z,25.93
2018-05-06T19:39:47.736Z,27.43
2018-05-06T19:42:16.091Z,20.67
2018-05-06T19:44:44.491Z,29.57
2018-05-06T19:47:12.818Z,34.33
2018-05-06T19:49:41.111Z,36.53
2018-05-06T19:52:09.622Z,33.73
2018-05-06T19:54:38.018Z,33.87
2018-05-06T19:57:07.910Z,33.30
2018-05-06T19:59:36.214Z,31.93
2018-05-06T20:02:04.478Z,30.77
2018-05-06T20:04:32.755Z,30.43
2018-05-06T20:07:01.799Z,30.73
2018-05-06T20:09:30.114Z,30.03
2018-05-06T20:11:58.472Z,31.17
2018-05-06T20:14:26.760Z,30.17
2018-05-06T20:16:55.064Z,28.43
2018-05-06T20:19:23.342Z,29.40
2018-05-06T20:21:51.954Z,30.40
2018-05-06T20:24:20.380Z,28.30
2018-05-06T20:26:48.787Z,28.60
2018-05-06T20:29:17.102Z,27.83
2018-05-06T20:31:45.457Z,28.57
2018-05-06T20:34:14.494Z,27.17
2018-05-06T20:36:42.833Z,26.30
2018-05-06T20:39:11.869Z,25.70
2018-05-06T20:41:40.518Z,26.10
2018-05-06T20:44:09.863Z,24.73
2018-05-06T20:46:38.173Z,23.70
2018-05-06T20:49:06.624Z,24.83
2018-05-06T20:51:34.923Z,24.90
2018-05-06T20:54:03.639Z,22.80
2018-05-06T20:56:32.718Z,22.77
2018-05-06T20:59:00.978Z,23.47
2018-05-06T21:01:29.267Z,24.13
2018-05-06T21:03:57.921Z,23.23
2018-05-06T21:06:26.194Z,22.77
2018-05-06T21:08:54.818Z,22.13
2018-05-06T21:11:23.262Z,21.43
2018-05-06T21:13:51.922Z,20.53
2018-05-06T21:16:20.297Z,20.20
2018-05-06T21:18:49.329Z,21.03
2018-05-06T21:21:17.729Z,20.43
2018-05-06T21:23:46.026Z,20.27
2018-05-06T21:26:14.308Z,20.03
2018-05-06T21:28:42.782Z,20.97
2018-05-06T21:31:11.258Z,18.97
2018-05-06T21:33:39.527Z,19.30
2018-05-06T21:36:07.816Z,18.70
2018-05-06T21:38:36.070Z,19.20
2018-05-06T21:41:04.404Z,18.37
2018-05-06T21:43:32.852Z,17.90
2018-05-06T21:46:01.086Z,17.63
2018-05-06T21:48:29.348Z,17.57
2018-05-06T21:50:57.661Z,17.07
2018-05-06T21:53:25.959Z,17.10
2018-05-06T21:55:55.008Z,16.93
2018-05-06T21:58:24.618Z,16.90
2018-05-06T22:00:53.013Z,16.93
2018-05-06T22:03:21.419Z,16.03
2018-05-06T22:05:49.762Z,16.50
2018-05-06T22:08:18.438Z,16.33
2018-05-06T22:10:46.856Z,15.43
2018-05-06T22:13:15.142Z,16.93
2018-05-06T22:15:43.821Z,16.17
2018-05-06T22:18:12.577Z,15.63
2018-05-06T22:20:40.990Z,15.97
2018-05-06T22:23:09.340Z,15.43
2018-05-06T22:25:37.690Z,15.27
2018-05-06T22:28:06.018Z,15.47
2018-05-06T22:30:34.486Z,15.23
2018-05-06T22:33:02.855Z,15.20
2018-05-06T22:35:31.186Z,15.77
2018-05-06T22:38:00.223Z,14.97
2018-05-06T22:40:28.527Z,14.80
2018-05-06T22:42:57.757Z,14.53
2018-05-06T22:45:26.252Z,14.17
2018-05-06T22:47:54.595Z,13.83
2018-05-06T22:50:22.975Z,14.67
2018-05-06T22:52:51.406Z,14.67
2018-05-06T22:55:19.739Z,14.00
2018-05-06T22:57:48.194Z,14.13
2018-05-06T23:00:16.485Z,13.33
2018-05-06T23:02:44.959Z,14.00
2018-05-06T23:05:13.313Z,13.90
2018-05-06T23:07:41.925Z,13.50
2018-05-06T23:10:10.390Z,13.63
2018-05-06T23:12:38.694Z,12.77
2018-05-06T23:15:07.551Z,13.03
2018-05-06T23:17:35.816Z,12.37
2018-05-06T23:20:04.210Z,12.43
2018-05-06T23:22:32.597Z,12.07
2018-05-06T23:25:00.888Z,11.67
2018-05-06T23:27:29.175Z,11.83
2018-05-06T23:29:57.587Z,12.73
2018-05-06T23:32:25.807Z,12.27
2018-05-06T23:34:54.091Z,11.97
2018-05-06T23:37:22.554Z,11.67
2018-05-06T23:39:50.900Z,11.13
2018-05-06T23:42:19.349Z,11.40
2018-05-06T23:44:47.626Z,11.70
2018-05-06T23:47:16.074Z,11.97
2018-05-06T23:49:44.828Z,10.97
2018-05-06T23:52:13.126Z,11.70
2018-05-06T23:54:41.562Z,10.77
2018-05-06T23:57:09.908Z,11.30
2018-05-06T23:59:38.270Z,10.70
